createdAt,value
2022-12-23T00:00:36.603Z,58.90
2022-12-23T00:03:39.435Z,58.85
2022-12-23T00:06:41.182Z,59.05
2022-12-23T00:09:42.753Z,59.00
2022-12-23T00:13:03.051Z,59.06
2022-12-23T00:16:13.598Z,59.10
2022-12-23T00:19:15.093Z,59.20
2022-12-23T00:22:16.543Z,58.98
2022-12-23T00:25:18.435Z,59.33
2022-12-23T00:28:23.202Z,59.35
2022-12-23T00:31:25.162Z,59.39
2022-12-23T00:34:26.675Z,59.62
2022-12-23T00:37:30.928Z,59.57
2022-12-23T00:40:51.583Z,59.41
2022-12-23T00:43:53.056Z,59.61
2022-12-23T00:46:54.627Z,59.42
2022-12-23T00:49:56.130Z,59.33
2022-12-23T00:52:57.828Z,59.39
2022-12-23T00:55:59.304Z,59.35
2022-12-23T00:59:00.837Z,59.68
2022-12-23T01:02:21.313Z,59.35
2022-12-23T01:05:38.958Z,59.30
2022-12-23T01:08:40.553Z,59.28
2022-12-23T01:11:42.425Z,59.43
2022-12-23T01:14:43.945Z,59.46
2022-12-23T01:17:45.552Z,59.40
2022-12-23T01:20:47.075Z,59.61
2022-12-23T01:23:48.520Z,59.40
2022-12-23T01:26:50.007Z,59.48
2022-12-23T01:29:51.591Z,59.51
2022-12-23T01:32:53.367Z,59.38
2022-12-23T01:36:07.162Z,59.43
2022-12-23T01:39:08.637Z,59.43
2022-12-23T01:42:38.539Z,59.41
2022-12-23T01:45:40.053Z,59.27
2022-12-23T01:48:49.356Z,59.37
2022-12-23T01:51:51.206Z,59.46
2022-12-23T01:54:54.043Z,59.23
2022-12-23T01:58:03.617Z,59.37
2022-12-23T02:01:25.373Z,59.42
2022-12-23T02:04:26.989Z,59.57
2022-12-23T02:07:47.537Z,59.69
2022-12-23T02:11:07.814Z,59.74
2022-12-23T02:14:37.040Z,60.03
2022-12-23T02:17:53.496Z,59.74
2022-12-23T02:21:04.075Z,59.72
2022-12-23T02:24:24.548Z,59.81
2022-12-23T02:27:30.865Z,59.94
2022-12-23T02:30:40.542Z,59.95
2022-12-23T02:34:09.820Z,59.93
2022-12-23T02:37:29.795Z,59.94
2022-12-23T02:40:43.526Z,60.00
2022-12-23T02:43:52.896Z,60.03
2022-12-23T02:47:03.485Z,60.00
2022-12-23T02:50:17.491Z,60.10
2022-12-23T02:53:25.502Z,60.10
2022-12-23T02:56:30.828Z,60.05
2022-12-23T02:59:39.191Z,60.08
2022-12-23T03:02:43.426Z,60.18
2022-12-23T03:05:47.591Z,60.10
2022-12-23T03:08:51.691Z,60.11
2022-12-23T03:12:05.412Z,60.16
2022-12-23T03:15:13.161Z,60.08
2022-12-23T03:18:33.373Z,60.09
2022-12-23T03:21:42.396Z,60.14
2022-12-23T03:25:02.389Z,60.04
2022-12-23T03:28:22.892Z,60.17
2022-12-23T03:31:28.552Z,60.20
2022-12-23T03:34:35.865Z,60.19
2022-12-23T03:37:43.764Z,60.17
2022-12-23T03:40:52.217Z,60.21
2022-12-23T03:44:00.475Z,60.28
2022-12-23T03:47:24.674Z,60.17
2022-12-23T03:50:28.583Z,60.12
2022-12-23T03:53:45.256Z,60.17
2022-12-23T03:56:53.791Z,60.15
2022-12-23T03:59:55.757Z,60.26
2022-12-23T04:03:13.010Z,60.31
2022-12-23T04:06:17.057Z,60.22
2022-12-23T04:09:22.389Z,60.39
2022-12-23T04:12:26.141Z,60.15
2022-12-23T04:15:28.036Z,60.19
2022-12-23T04:18:29.739Z,60.14
2022-12-23T04:21:31.207Z,60.17
2022-12-23T04:24:32.677Z,59.95
2022-12-23T04:27:34.147Z,60.25
2022-12-23T04:30:35.651Z,60.34
2022-12-23T04:33:37.230Z,60.55
2022-12-23T04:36:38.720Z,60.44
2022-12-23T04:39:40.260Z,60.21
2022-12-23T04:42:41.801Z,60.28
2022-12-23T04:45:43.316Z,60.45
2022-12-23T04:48:44.805Z,60.37
2022-12-23T04:51:46.362Z,60.53
2022-12-23T04:54:47.912Z,60.45
2022-12-23T04:57:49.458Z,60.44
2022-12-23T05:01:04.890Z,60.35
2022-12-23T05:04:06.513Z,60.43
2022-12-23T05:07:07.988Z,60.70
2022-12-23T05:10:10.351Z,60.66
2022-12-23T05:13:11.873Z,60.68
2022-12-23T05:16:13.378Z,60.76
2022-12-23T05:19:15.533Z,60.75
2022-12-23T05:22:17.442Z,60.85
2022-12-23T05:25:19.078Z,60.96
2022-12-23T05:28:22.291Z,60.93
2022-12-23T05:31:23.822Z,60.92
2022-12-23T05:34:25.381Z,60.99
2022-12-23T05:37:27.035Z,60.94
2022-12-23T05:40:29.817Z,61.17
2022-12-23T05:43:33.885Z,61.15
2022-12-23T05:46:35.421Z,61.07
2022-12-23T05:49:37.164Z,60.89
2022-12-23T05:52:38.939Z,61.10
2022-12-23T05:55:40.399Z,60.98
2022-12-23T05:58:41.894Z,61.04
2022-12-23T06:01:43.538Z,61.18
2022-12-23T06:04:45.060Z,61.24
2022-12-23T06:07:46.511Z,61.31
2022-12-23T06:10:48.135Z,61.28
2022-12-23T06:13:49.682Z,61.35
2022-12-23T06:16:51.576Z,61.42
2022-12-23T06:19:53.093Z,61.29
2022-12-23T06:22:54.551Z,61.38
2022-12-23T06:26:03.608Z,61.30
2022-12-23T06:29:05.119Z,61.36
2022-12-23T06:32:06.919Z,61.46
2022-12-23T06:35:09.291Z,61.36
2022-12-23T06:38:12.431Z,61.30
2022-12-23T06:41:13.994Z,61.22
2022-12-23T06:44:15.469Z,61.39
2022-12-23T06:47:16.942Z,61.34
2022-12-23T06:50:18.583Z,61.32
2022-12-23T06:53:20.339Z,61.18
2022-12-23T06:56:22.149Z,61.46
2022-12-23T06:59:23.727Z,61.47
2022-12-23T07:02:25.284Z,61.46
2022-12-23T07:05:30.636Z,61.58
2022-12-23T07:08:36.762Z,61.55
2022-12-23T07:11:38.336Z,61.47
2022-12-23T07:14:39.831Z,61.82
2022-12-23T07:17:41.348Z,61.62
2022-12-23T07:20:42.905Z,61.67
2022-12-23T07:23:44.547Z,62.06
2022-12-23T07:26:46.229Z,61.79
2022-12-23T07:29:47.722Z,61.86
2022-12-23T07:32:52.619Z,61.91
2022-12-23T07:35:58.897Z,61.87
2022-12-23T07:39:00.394Z,61.86
2022-12-23T07:42:42.930Z,61.78
2022-12-23T07:45:25.083Z,61.81
2022-12-23T07:48:26.596Z,61.57
2022-12-23T07:51:28.087Z,60.27
2022-12-23T07:54:29.683Z,60.53
2022-12-23T07:57:37.579Z,60.93
2022-12-23T08:00:40.263Z,61.04
2022-12-23T08:03:41.887Z,61.37
2022-12-23T08:06:43.525Z,61.49
2022-12-23T08:09:45.061Z,61.51
2022-12-23T08:12:46.600Z,61.49
2022-12-23T08:15:48.051Z,61.47
2022-12-23T08:18:49.561Z,61.42
2022-12-23T08:21:51.162Z,61.93
2022-12-23T08:24:53.162Z,61.97
2022-12-23T08:27:54.626Z,62.19
2022-12-23T08:31:02.363Z,62.17
2022-12-23T08:34:03.928Z,62.20
2022-12-23T08:37:05.492Z,62.18
2022-12-23T08:40:07.676Z,62.35
2022-12-23T08:43:09.309Z,62.41
2022-12-23T08:46:11.456Z,62.50
2022-12-23T08:49:13.101Z,62.44
2022-12-23T08:52:14.570Z,62.38
2022-12-23T08:55:16.178Z,62.41
2022-12-23T08:58:17.736Z,62.36
2022-12-23T09:01:21.448Z,62.26
2022-12-23T09:04:22.972Z,62.18
2022-12-23T09:07:24.479Z,62.19
2022-12-23T09:10:26.174Z,62.22
2022-12-23T09:13:34.878Z,62.56
2022-12-23T09:16:38.130Z,62.53
2022-12-23T09:19:39.655Z,62.82
2022-12-23T09:22:41.202Z,63.01
2022-12-23T09:25:42.652Z,63.35
2022-12-23T09:28:44.137Z,63.38
2022-12-23T09:31:45.685Z,63.50
2022-12-23T09:34:47.192Z,63.47
2022-12-23T09:37:48.766Z,63.44
2022-12-23T09:40:50.270Z,63.41
2022-12-23T09:44:06.056Z,63.50
2022-12-23T09:47:13.351Z,63.49
2022-12-23T09:50:26.591Z,63.65
2022-12-23T09:53:54.057Z,63.74
2022-12-23T09:57:02.277Z,63.76
2022-12-23T10:00:13.646Z,63.80
2022-12-23T10:03:28.811Z,63.70
2022-12-23T10:06:31.670Z,63.70
2022-12-23T10:09:39.347Z,63.89
2022-12-23T10:12:44.570Z,61.87
2022-12-23T10:15:49.045Z,62.05
2022-12-23T10:18:51.095Z,62.47
2022-12-23T10:21:58.581Z,62.81
2022-12-23T10:25:03.394Z,62.91
2022-12-23T10:28:04.858Z,62.94
2022-12-23T10:35:14.100Z,62.82
2022-12-23T10:38:20.516Z,62.93
2022-12-23T10:41:30.855Z,63.12
2022-12-23T10:44:51.102Z,63.10
2022-12-23T10:48:23.581Z,63.11
2022-12-23T10:51:42.642Z,63.27
2022-12-23T10:54:46.336Z,63.54
2022-12-23T10:57:48.386Z,63.79
2022-12-23T11:01:04.611Z,64.05
2022-12-23T11:04:17.838Z,64.27
2022-12-23T11:07:44.052Z,64.71
2022-12-23T11:10:46.398Z,64.68
2022-12-23T11:13:48.123Z,64.83
2022-12-23T11:16:49.714Z,64.94
2022-12-23T11:20:11.660Z,64.78
2022-12-23T11:23:28.244Z,64.93
2022-12-23T11:26:29.841Z,64.80
2022-12-23T11:29:37.307Z,64.81
2022-12-23T11:32:38.912Z,64.93
2022-12-23T11:35:40.547Z,64.91
2022-12-23T11:39:07.438Z,64.99
2022-12-23T11:42:17.501Z,65.01
2022-12-23T11:45:25.307Z,65.15
2022-12-23T11:48:29.705Z,65.08
2022-12-23T11:51:31.178Z,65.07
2022-12-23T11:54:34.064Z,65.18
2022-12-23T11:57:40.555Z,64.98
2022-12-23T12:00:55.621Z,64.97
2022-12-23T12:04:02.923Z,64.76
2022-12-23T12:07:06.729Z,64.77
2022-12-23T12:10:37.738Z,64.67
2022-12-23T12:13:44.913Z,64.63
2022-12-23T12:17:05.947Z,64.58
2022-12-23T12:20:29.122Z,64.56
2022-12-23T12:23:43.537Z,64.50
2022-12-23T12:26:51.241Z,64.73
2022-12-23T12:30:02.032Z,64.58
2022-12-23T12:33:15.748Z,64.61
2022-12-23T12:36:36.226Z,64.65
2022-12-23T12:39:52.552Z,64.56
2022-12-23T12:43:11.846Z,64.61
2022-12-23T12:46:40.653Z,64.65
2022-12-23T12:49:51.033Z,64.62
2022-12-23T12:52:56.381Z,64.66
2022-12-23T12:56:07.282Z,64.72
2022-12-23T12:59:17.728Z,64.62
2022-12-23T13:02:46.826Z,64.52
2022-12-23T13:06:18.123Z,64.43
2022-12-23T13:09:29.846Z,64.55
2022-12-23T13:12:34.276Z,64.58
2022-12-23T13:15:50.466Z,64.54
2022-12-23T13:19:04.231Z,64.35
2022-12-23T13:22:13.123Z,64.28
2022-12-23T13:25:20.433Z,64.43
2022-12-23T13:28:38.031Z,64.26
2022-12-23T13:31:53.605Z,64.27
2022-12-23T13:35:13.394Z,64.37
2022-12-23T13:38:30.525Z,64.20
2022-12-23T13:41:51.726Z,64.17
2022-12-23T13:44:55.923Z,64.25
2022-12-23T13:48:08.909Z,64.24
2022-12-23T13:51:19.587Z,64.10
2022-12-23T13:54:58.682Z,64.04
2022-12-23T13:58:20.295Z,64.11
2022-12-23T14:01:40.227Z,63.95
2022-12-23T14:04:53.874Z,63.88
2022-12-23T14:07:56.768Z,63.96
2022-12-23T14:11:01.282Z,63.94
2022-12-23T14:14:05.244Z,63.81
2022-12-23T14:17:30.308Z,63.80
2022-12-23T14:20:50.535Z,63.76
2022-12-23T14:24:19.335Z,63.79
2022-12-23T14:28:08.592Z,63.76
2022-12-23T14:31:30.036Z,63.57
2022-12-23T14:34:33.682Z,63.58
2022-12-23T14:37:36.104Z,63.65
2022-12-23T14:40:38.316Z,63.41
2022-12-23T14:43:45.743Z,63.45
2022-12-23T14:46:47.259Z,63.53
2022-12-23T14:49:48.909Z,63.51
2022-12-23T14:52:59.664Z,63.36
2022-12-23T14:56:16.861Z,63.46
2022-12-23T14:59:25.661Z,63.50
2022-12-23T15:02:41.212Z,63.45
2022-12-23T15:05:43.509Z,63.66
2022-12-23T15:08:47.323Z,63.66
2022-12-23T15:11:50.122Z,63.51
2022-12-23T15:15:01.039Z,63.45
2022-12-23T15:18:13.469Z,63.38
2022-12-23T15:21:14.926Z,63.38
2022-12-23T15:24:22.629Z,63.42
2022-12-23T15:27:27.760Z,63.29
2022-12-23T15:30:37.300Z,63.21
2022-12-23T15:37:00.597Z,63.05
2022-12-23T15:40:12.592Z,63.18
2022-12-23T15:43:24.819Z,63.07
2022-12-23T15:46:30.053Z,62.94
2022-12-23T15:49:32.028Z,62.81
2022-12-23T15:52:33.515Z,62.65
2022-12-23T15:55:39.324Z,62.79
2022-12-23T15:58:42.449Z,62.57
2022-12-23T16:01:44.088Z,62.52
2022-12-23T16:04:54.701Z,62.68
2022-12-23T16:08:28.246Z,62.54
2022-12-23T16:11:48.432Z,62.59
2022-12-23T16:15:00.416Z,62.70
2022-12-23T16:18:35.606Z,62.84
2022-12-23T16:21:37.777Z,62.83
2022-12-23T16:24:49.533Z,62.98
2022-12-23T16:28:07.492Z,62.97
2022-12-23T16:31:10.700Z,62.86
2022-12-23T16:34:12.953Z,63.02
2022-12-23T16:37:14.496Z,63.23
2022-12-23T16:40:16.006Z,63.14
2022-12-23T16:43:18.966Z,63.31
2022-12-23T16:46:22.446Z,63.38
2022-12-23T16:49:32.939Z,63.42
2022-12-23T16:52:35.075Z,63.53
2022-12-23T16:55:36.602Z,63.49
2022-12-23T16:58:38.572Z,63.72
2022-12-23T17:01:43.499Z,63.62
2022-12-23T17:04:45.099Z,63.85
2022-12-23T17:07:46.653Z,63.72
2022-12-23T17:10:48.208Z,63.71
2022-12-23T17:13:49.746Z,64.07
2022-12-23T17:16:51.739Z,63.83
2022-12-23T17:19:53.329Z,63.81
2022-12-23T17:22:59.431Z,63.72
2022-12-23T17:26:00.948Z,63.34
2022-12-23T17:29:06.004Z,63.40
2022-12-23T17:32:12.143Z,63.36
2022-12-23T17:35:15.222Z,63.45
2022-12-23T17:38:16.961Z,63.40
2022-12-23T17:41:30.760Z,63.43
2022-12-23T17:44:32.286Z,63.24
2022-12-23T17:47:33.736Z,63.38
2022-12-23T17:50:35.626Z,63.36
2022-12-23T17:53:37.143Z,63.34
2022-12-23T17:56:39.060Z,63.11
2022-12-23T17:59:40.569Z,63.42
2022-12-23T18:02:42.996Z,63.49
2022-12-23T18:05:44.522Z,63.25
2022-12-23T18:08:46.264Z,63.48
2022-12-23T18:11:48.014Z,63.57
2022-12-23T18:14:49.675Z,63.73
2022-12-23T18:17:52.769Z,63.83
2022-12-23T18:20:56.528Z,63.78
2022-12-23T18:23:59.705Z,64.10
2022-12-23T18:27:01.769Z,64.59
2022-12-23T18:30:03.944Z,64.41
2022-12-23T18:33:06.937Z,64.33
2022-12-23T18:36:28.230Z,63.70
2022-12-23T18:39:29.833Z,61.79
2022-12-23T18:42:31.302Z,61.37
2022-12-23T18:45:38.282Z,62.17
2022-12-23T18:48:40.600Z,62.95
2022-12-23T18:51:42.248Z,63.36
2022-12-23T18:54:43.732Z,63.72
2022-12-23T18:57:45.195Z,63.85
2022-12-23T19:00:47.746Z,63.99
2022-12-23T19:03:49.217Z,64.31
2022-12-23T19:06:50.889Z,64.48
2022-12-23T19:09:52.365Z,64.70
2022-12-23T19:12:54.087Z,64.69
2022-12-23T19:15:55.670Z,64.59
2022-12-23T19:18:57.250Z,64.63
2022-12-23T19:21:58.786Z,64.70
2022-12-23T19:25:05.943Z,64.64
2022-12-23T19:28:08.363Z,64.57
2022-12-23T19:31:14.769Z,64.68
2022-12-23T19:34:16.268Z,64.79
2022-12-23T19:37:18.340Z,64.89
2022-12-23T19:40:19.943Z,65.11
2022-12-23T19:43:21.390Z,65.11
2022-12-23T19:46:22.965Z,65.27
2022-12-23T19:49:24.606Z,65.35
2022-12-23T19:52:26.145Z,65.52
2022-12-23T19:55:27.634Z,65.66
2022-12-23T19:58:32.944Z,65.85
2022-12-23T20:01:34.458Z,65.86
2022-12-23T20:04:35.984Z,65.72
2022-12-23T20:07:37.503Z,65.76
2022-12-23T20:10:38.972Z,65.65
2022-12-23T20:13:41.008Z,65.95
2022-12-23T20:16:42.900Z,65.92
2022-12-23T20:19:46.323Z,64.94
2022-12-23T20:22:48.142Z,63.21
2022-12-23T20:25:50.388Z,62.53
2022-12-23T20:28:51.882Z,63.78
2022-12-23T20:31:53.417Z,64.40
2022-12-23T20:34:54.900Z,64.70
2022-12-23T20:37:56.528Z,64.88
2022-12-23T20:40:58.073Z,65.23
2022-12-23T20:47:21.233Z,65.23
2022-12-23T20:50:22.924Z,65.45
2022-12-23T20:53:24.397Z,65.35
2022-12-23T20:56:27.539Z,65.59
2022-12-23T20:59:29.238Z,65.63
2022-12-23T21:02:30.799Z,65.38
2022-12-23T21:05:32.359Z,65.19
2022-12-23T21:08:35.055Z,65.48
2022-12-23T21:11:38.450Z,65.30
2022-12-23T21:14:39.949Z,65.20
2022-12-23T21:17:41.419Z,65.46
2022-12-23T21:20:42.955Z,65.55
2022-12-23T21:23:44.487Z,65.54
2022-12-23T21:26:49.053Z,65.40
2022-12-23T21:29:55.154Z,65.26
2022-12-23T21:33:00.171Z,64.96
2022-12-23T21:36:01.791Z,64.91
2022-12-23T21:39:04.433Z,64.51
2022-12-23T21:42:06.616Z,64.34
2022-12-23T21:45:08.760Z,64.15
2022-12-23T21:48:10.270Z,63.99
2022-12-23T21:51:15.383Z,63.73
2022-12-23T21:54:16.905Z,63.97
2022-12-23T21:57:18.357Z,63.67
2022-12-23T22:00:19.931Z,63.70
2022-12-23T22:03:21.435Z,63.92
2022-12-23T22:06:24.700Z,63.71
2022-12-23T22:09:26.211Z,63.93
2022-12-23T22:12:27.718Z,64.10
2022-12-23T22:15:29.170Z,63.92
2022-12-23T22:18:31.777Z,63.89
2022-12-23T22:21:34.279Z,64.03
2022-12-23T22:24:35.753Z,64.07
2022-12-23T22:27:37.300Z,64.20
2022-12-23T22:30:38.774Z,64.25
2022-12-23T22:33:40.242Z,64.22
2022-12-23T22:36:42.457Z,64.13
2022-12-23T22:39:44.051Z,64.29
2022-12-23T22:42:45.549Z,64.41
2022-12-23T22:45:47.333Z,64.57
2022-12-23T22:48:49.169Z,64.32
2022-12-23T22:51:50.626Z,64.72
2022-12-23T22:54:52.093Z,64.63
2022-12-23T22:57:53.538Z,64.45
2022-12-23T23:00:55.417Z,64.45
2022-12-23T23:03:59.859Z,64.68
2022-12-23T23:07:01.404Z,64.75
2022-12-23T23:10:02.991Z,64.29
2022-12-23T23:13:04.437Z,64.57
2022-12-23T23:16:06.350Z,64.42
2022-12-23T23:19:09.052Z,64.50
2022-12-23T23:22:10.622Z,64.51
2022-12-23T23:25:12.212Z,64.28
2022-12-23T23:28:14.466Z,64.43
2022-12-23T23:34:37.637Z,64.30
2022-12-23T23:37:39.124Z,64.42
2022-12-23T23:40:40.635Z,64.43
2022-12-23T23:43:42.196Z,64.47
2022-12-23T23:46:46.104Z,64.19
2022-12-23T23:49:47.563Z,64.12
2022-12-23T23:52:50.296Z,64.25
2022-12-23T23:55:51.757Z,64.33
2022-12-23T23:58:53.596Z,64.04
